Time;durP1;ratioP1;P1;durP2;ratioP2;P2;SDS_P1;SDS_P2;PMS_P1;PMS_P2;Temp;Humidity;BMP_temperature;BMP_pressure;BME280_temperature;BME280_humidity;BME280_pressure;Samples;Min_cycle;Max_cycle;Signal;HPM_P1;HPM_P2
2023/07/15 00:01:23;;;;;;;3.15;1.70;;;;;;;;;;5073133;28;20235;-41
2023/07/15 00:03:51;;;;;;;5.13;1.88;;;;;;;;;;5072155;28;20199;-42
2023/07/15 00:06:20;;;;;;;4.47;1.98;;;;;;;;;;5072098;28;20207;-41
2023/07/15 00:08:50;;;;;;;3.35;1.63;;;;;;;;;;5073337;28;20694;-40
2023/07/15 00:11:23;;;;;;;3.72;2.15;;;;;;;;;;5072989;28;20199;-42
2023/07/15 00:13:50;;;;;;;2.92;2.30;;;;;;;;;;5073054;28;20215;-41
2023/07/15 00:16:17;;;;;;;3.72;2.30;;;;;;;;;;5073066;28;20202;-42
2023/07/15 00:18:46;;;;;;;3.83;2.38;;;;;;;;;;5072967;28;20671;-40
2023/07/15 00:21:34;;;;;;;5.07;2.60;;;;;;;;;;5073158;28;20227;-40
2023/07/15 00:24:01;;;;;;;2.60;1.98;;;;;;;;;;5076954;28;20183;-40
2023/07/15 00:26:32;;;;;;;2.75;2.20;;;;;;;;;;5075426;28;20277;-40
2023/07/15 00:29:03;;;;;;;2.67;1.65;;;;;;;;;;5076180;28;20203;-40
2023/07/15 00:31:34;;;;;;;2.70;2.08;;;;;;;;;;5077213;28;20285;-41
2023/07/15 00:34:03;;;;;;;3.42;2.08;;;;;;;;;;5075500;28;20717;-42
2023/07/15 00:36:31;;;;;;;6.50;2.17;;;;;;;;;;5076891;28;20671;-40
2023/07/15 00:38:59;;;;;;;4.18;2.13;;;;;;;;;;5076718;28;20211;-40
2023/07/15 00:41:29;;;;;;;4.63;1.98;;;;;;;;;;5076794;28;20595;-41
2023/07/15 00:44:05;;;;;;;2.72;1.85;;;;;;;;;;5075669;28;20217;-40
2023/07/15 00:46:45;;;;;;;3.85;2.03;;;;;;;;;;5075571;28;20701;-40
2023/07/15 00:49:20;;;;;;;3.75;2.35;;;;;;;;;;5075281;28;20210;-41
2023/07/15 00:52:02;;;;;;;5.15;1.70;;;;;;;;;;5075286;28;20213;-41
2023/07/15 00:54:32;;;;;;;3.60;2.03;;;;;;;;;;5076374;28;20199;-40
2023/07/15 00:57:02;;;;;;;2.97;2.38;;;;;;;;;;5076837;28;20261;-41
2023/07/15 00:59:31;;;;;;;3.47;2.50;;;;;;;;;;5076338;28;20285;-41
2023/07/15 01:01:59;;;;;;;4.03;2.45;;;;;;;;;;5076463;28;20652;-40
2023/07/15 01:04:26;;;;;;;3.95;2.90;;;;;;;;;;5076518;28;20565;-40
2023/07/15 01:06:54;;;;;;;3.25;2.22;;;;;;;;;;5075142;28;20215;-40
2023/07/15 01:09:26;;;;;;;5.93;2.63;;;;;;;;;;5075278;28;20199;-40
2023/07/15 01:11:54;;;;;;;3.47;2.28;;;;;;;;;;5076172;28;20210;-40
2023/07/15 01:14:21;;;;;;;3.40;2.30;;;;;;;;;;5075791;28;20210;-41
2023/07/15 01:16:49;;;;;;;3.08;2.00;;;;;;;;;;5076283;28;20200;-40
2023/07/15 01:19:19;;;;;;;3.53;2.40;;;;;;;;;;5075365;28;20200;-41
2023/07/15 01:21:50;;;;;;;3.95;2.95;;;;;;;;;;5076011;28;20198;-40
2023/07/15 01:24:21;;;;;;;4.65;2.83;;;;;;;;;;5058667;28;20729;-40
2023/07/15 01:26:56;;;;;;;6.05;3.13;;;;;;;;;;5076077;28;20257;-40
2023/07/15 01:29:25;;;;;;;5.78;3.33;;;;;;;;;;5075103;28;20209;-40
2023/07/15 01:31:52;;;;;;;5.15;2.92;;;;;;;;;;5074895;28;20203;-40
2023/07/15 01:34:19;;;;;;;4.72;2.95;;;;;;;;;;5074928;28;20207;-40
2023/07/15 01:36:48;;;;;;;5.38;2.90;;;;;;;;;;5075789;28;20662;-40
2023/07/15 01:39:15;;;;;;;3.03;2.55;;;;;;;;;;5074766;28;20196;-40
2023/07/15 01:41:44;;;;;;;6.00;3.22;;;;;;;;;;5074919;28;20204;-40
2023/07/15 01:44:12;;;;;;;3.72;2.78;;;;;;;;;;5075577;28;20677;-40
2023/07/15 01:46:39;;;;;;;3.85;3.13;;;;;;;;;;5075268;28;20203;-40
2023/07/15 01:49:08;;;;;;;5.57;3.35;;;;;;;;;;5075513;28;20206;-40
2023/07/15 01:51:35;;;;;;;5.45;3.20;;;;;;;;;;5074183;28;20606;-40
2023/07/15 01:54:03;;;;;;;8.55;3.25;;;;;;;;;;5074392;28;20206;-40
2023/07/15 01:56:30;;;;;;;3.22;2.65;;;;;;;;;;5075084;28;20211;-40
2023/07/15 01:58:58;;;;;;;3.10;2.50;;;;;;;;;;5074151;28;20211;-40
2023/07/15 02:01:26;;;;;;;5.88;3.40;;;;;;;;;;5073729;28;20695;-40
2023/07/15 02:03:54;;;;;;;5.40;3.10;;;;;;;;;;5075155;28;20199;-40
2023/07/15 02:06:21;;;;;;;4.70;3.13;;;;;;;;;;5073714;28;20245;-40
2023/07/15 02:08:49;;;;;;;8.02;3.42;;;;;;;;;;5075163;28;20208;-40
2023/07/15 02:11:16;;;;;;;5.95;3.60;;;;;;;;;;5074003;28;20246;-41
2023/07/15 02:13:43;;;;;;;7.00;3.22;;;;;;;;;;5073381;28;20204;-41
2023/07/15 02:16:11;;;;;;;3.40;2.58;;;;;;;;;;5072745;28;20200;-41
2023/07/15 02:18:42;;;;;;;4.40;2.75;;;;;;;;;;5073873;28;20245;-40
2023/07/15 02:21:09;;;;;;;3.78;2.67;;;;;;;;;;5074482;28;20285;-41
2023/07/15 02:23:36;;;;;;;5.03;2.88;;;;;;;;;;5074823;28;20202;-41
2023/07/15 02:26:03;;;;;;;3.95;2.72;;;;;;;;;;5074858;28;20206;-40
2023/07/15 02:28:32;;;;;;;5.47;2.83;;;;;;;;;;5073563;28;20659;-41
2023/07/15 02:31:01;;;;;;;5.03;2.97;;;;;;;;;;5073688;28;20290;-40
2023/07/15 02:33:29;;;;;;;4.55;3.42;;;;;;;;;;5074347;28;20209;-40
2023/07/15 02:35:56;;;;;;;9.18;3.30;;;;;;;;;;5073258;28;20195;-42
2023/07/15 02:38:24;;;;;;;7.95;3.33;;;;;;;;;;5074540;28;20206;-41
2023/07/15 02:40:50;;;;;;;4.75;3.05;;;;;;;;;;5073860;28;20215;-40
2023/07/15 02:43:19;;;;;;;3.80;2.78;;;;;;;;;;5074186;28;20693;-40
2023/07/15 02:45:50;;;;;;;7.80;2.80;;;;;;;;;;5072317;28;20509;-41
2023/07/15 02:48:19;;;;;;;6.22;3.25;;;;;;;;;;5074302;28;20207;-40
2023/07/15 02:50:56;;;;;;;5.43;2.95;;;;;;;;;;5074199;28;20242;-43
2023/07/15 02:53:23;;;;;;;21.65;9.07;;;;;;;;;;5074379;28;20198;-42
2023/07/15 02:55:50;;;;;;;6.55;3.83;;;;;;;;;;5074249;28;20575;-43
2023/07/15 02:58:18;;;;;;;5.25;2.95;;;;;;;;;;5073407;28;20261;-43
2023/07/15 03:00:46;;;;;;;4.40;2.90;;;;;;;;;;5067795;28;20254;-42
2023/07/15 03:03:13;;;;;;;5.78;2.53;;;;;;;;;;5055082;28;20212;-42
2023/07/15 03:05:45;;;;;;;4.25;2.78;;;;;;;;;;5053861;28;20202;-42
2023/07/15 03:08:14;;;;;;;8.07;3.35;;;;;;;;;;5053272;28;20189;-42
2023/07/15 03:10:45;;;;;;;5.70;2.45;;;;;;;;;;5052946;28;20298;-43
2023/07/15 03:13:12;;;;;;;4.22;2.63;;;;;;;;;;5052310;28;20671;-42
2023/07/15 03:15:40;;;;;;;9.65;3.10;;;;;;;;;;5054185;28;20218;-43
2023/07/15 03:18:07;;;;;;;3.78;2.88;;;;;;;;;;5053219;28;20204;-43
2023/07/15 03:20:34;;;;;;;10.93;2.80;;;;;;;;;;5053476;28;20549;-43
2023/07/15 03:23:02;;;;;;;3.60;2.78;;;;;;;;;;5052767;28;20200;-43
2023/07/15 03:25:29;;;;;;;6.38;2.92;;;;;;;;;;5053485;28;20664;-43
2023/07/15 03:27:58;;;;;;;6.28;3.00;;;;;;;;;;5052440;28;20204;-43
2023/07/15 03:30:26;;;;;;;7.38;2.83;;;;;;;;;;5066887;28;20290;-44
2023/07/15 03:32:56;;;;;;;4.15;2.70;;;;;;;;;;5073214;28;20204;-43
2023/07/15 03:35:23;;;;;;;3.92;2.50;;;;;;;;;;5071601;28;20207;-43
2023/07/15 03:37:51;;;;;;;6.68;2.90;;;;;;;;;;5073288;28;20207;-43
2023/07/15 03:40:18;;;;;;;4.43;2.85;;;;;;;;;;5070588;28;20314;-43
2023/07/15 03:42:46;;;;;;;3.45;2.42;;;;;;;;;;5072331;28;20214;-43
2023/07/15 03:45:13;;;;;;;3.47;2.80;;;;;;;;;;5073677;28;20211;-43
2023/07/15 03:47:40;;;;;;;4.43;2.90;;;;;;;;;;5073498;28;20209;-44
2023/07/15 03:50:11;;;;;;;8.20;3.13;;;;;;;;;;5073342;28;20214;-44
2023/07/15 03:52:38;;;;;;;8.05;2.80;;;;;;;;;;5073684;28;20196;-43
2023/07/15 03:55:05;;;;;;;9.20;4.45;;;;;;;;;;5073700;28;20195;-43
2023/07/15 03:57:33;;;;;;;5.88;3.67;;;;;;;;;;5073031;28;20256;-42
2023/07/15 04:00:00;;;;;;;4.60;3.25;;;;;;;;;;5073431;28;20293;-42
2023/07/15 04:02:39;;;;;;;7.50;4.00;;;;;;;;;;5073315;28;20210;-43
2023/07/15 04:05:07;;;;;;;6.20;3.10;;;;;;;;;;5073083;28;20282;-43
2023/07/15 04:07:34;;;;;;;5.18;3.20;;;;;;;;;;5073850;28;20200;-43
2023/07/15 04:10:01;;;;;;;4.63;2.75;;;;;;;;;;5073369;28;20629;-42
2023/07/15 04:12:28;;;;;;;5.07;2.78;;;;;;;;;;5073460;28;20200;-43
2023/07/15 04:14:55;;;;;;;4.55;3.15;;;;;;;;;;5069716;28;20199;-43
2023/07/15 04:17:23;;;;;;;7.85;2.80;;;;;;;;;;5069114;28;20206;-43
2023/07/15 04:19:50;;;;;;;8.15;2.80;;;;;;;;;;5070914;28;20198;-44
2023/07/15 04:22:18;;;;;;;4.50;2.95;;;;;;;;;;5069874;28;20222;-42
2023/07/15 04:24:45;;;;;;;5.60;3.03;;;;;;;;;;5073035;28;20206;-42
2023/07/15 04:27:12;;;;;;;5.22;2.90;;;;;;;;;;5072952;28;20649;-43
2023/07/15 04:29:39;;;;;;;7.47;3.10;;;;;;;;;;5073106;28;20209;-45
2023/07/15 04:32:06;;;;;;;3.55;2.72;;;;;;;;;;5072867;28;20207;-42
2023/07/15 04:34:33;;;;;;;6.20;2.70;;;;;;;;;;5072936;28;20659;-42
2023/07/15 04:37:00;;;;;;;2.83;2.47;;;;;;;;;;5073094;28;20261;-44
2023/07/15 04:39:27;;;;;;;3.58;2.58;;;;;;;;;;5073144;28;20294;-42
2023/07/15 04:41:55;;;;;;;3.00;2.53;;;;;;;;;;5072886;28;20714;-42
2023/07/15 04:44:22;;;;;;;3.20;2.40;;;;;;;;;;5073025;28;20203;-42
2023/07/15 04:46:49;;;;;;;4.05;2.65;;;;;;;;;;5072918;28;20203;-42
2023/07/15 04:49:17;;;;;;;3.15;2.30;;;;;;;;;;5055530;28;20195;-43
2023/07/15 04:51:45;;;;;;;6.60;2.95;;;;;;;;;;5072246;28;20233;-43
2023/07/15 04:54:12;;;;;;;4.22;2.55;;;;;;;;;;5064229;28;20568;-43
2023/07/15 04:56:39;;;;;;;3.83;2.70;;;;;;;;;;5061110;28;20246;-43
2023/07/15 04:59:07;;;;;;;4.13;2.78;;;;;;;;;;5067584;28;20227;-45
2023/07/15 05:01:35;;;;;;;3.53;2.70;;;;;;;;;;5068262;28;20548;-42
2023/07/15 05:04:03;;;;;;;3.28;2.28;;;;;;;;;;5072312;28;20191;-42
2023/07/15 05:06:31;;;;;;;3.63;2.78;;;;;;;;;;5069813;28;20191;-43
2023/07/15 05:08:58;;;;;;;3.63;2.50;;;;;;;;;;5069020;28;20286;-43
2023/07/15 05:11:28;;;;;;;8.95;2.90;;;;;;;;;;5073329;28;20223;-43
2023/07/15 05:13:55;;;;;;;4.85;2.90;;;;;;;;;;5071818;28;20283;-44
2023/07/15 05:16:22;;;;;;;3.10;2.65;;;;;;;;;;5072041;28;20207;-42
2023/07/15 05:18:50;;;;;;;3.90;2.95;;;;;;;;;;5076160;28;20551;-44
2023/07/15 05:21:17;;;;;;;4.82;3.03;;;;;;;;;;5075824;28;20258;-42
2023/07/15 05:23:44;;;;;;;3.55;2.50;;;;;;;;;;5075569;28;20221;-41
2023/07/15 05:26:11;;;;;;;3.53;2.50;;;;;;;;;;5076294;28;20207;-46
2023/07/15 05:28:38;;;;;;;3.42;2.63;;;;;;;;;;5075422;28;20203;-44
2023/07/15 05:31:06;;;;;;;3.25;2.30;;;;;;;;;;5072092;28;20256;-41
2023/07/15 05:33:33;;;;;;;6.50;2.33;;;;;;;;;;5066603;28;20207;-42
2023/07/15 05:36:01;;;;;;;3.50;2.20;;;;;;;;;;5056147;28;20207;-40
2023/07/15 05:38:28;;;;;;;4.25;2.60;;;;;;;;;;5063867;28;20766;-40
2023/07/15 05:40:55;;;;;;;3.88;2.25;;;;;;;;;;5073172;28;20227;-43
2023/07/15 05:43:22;;;;;;;3.70;2.67;;;;;;;;;;5074493;28;20219;-42
2023/07/15 05:45:50;;;;;;;3.60;2.05;;;;;;;;;;5071610;28;20219;-42
2023/07/15 05:48:17;;;;;;;3.38;2.33;;;;;;;;;;5061515;28;20220;-42
2023/07/15 05:50:44;;;;;;;2.60;1.75;;;;;;;;;;5074779;28;20219;-42
2023/07/15 05:53:11;;;;;;;4.57;2.08;;;;;;;;;;5074052;28;20226;-42
2023/07/15 05:55:38;;;;;;;2.33;1.75;;;;;;;;;;5074490;28;20230;-42
2023/07/15 05:58:11;;;;;;;2.30;1.67;;;;;;;;;;5074626;28;20235;-41
2023/07/15 06:00:40;;;;;;;2.22;1.70;;;;;;;;;;5074476;28;20235;-42
2023/07/15 06:03:08;;;;;;;3.63;1.88;;;;;;;;;;5074385;28;20596;-42
2023/07/15 06:05:36;;;;;;;2.53;1.80;;;;;;;;;;5073992;28;20226;-42
2023/07/15 06:08:03;;;;;;;2.17;1.85;;;;;;;;;;5063025;28;20222;-44
2023/07/15 06:10:30;;;;;;;3.25;1.95;;;;;;;;;;5061588;28;20251;-44
2023/07/15 06:12:57;;;;;;;3.40;1.92;;;;;;;;;;5052127;28;20306;-42
2023/07/15 06:15:25;;;;;;;2.58;1.90;;;;;;;;;;5053414;28;20723;-45
2023/07/15 06:17:52;;;;;;;3.38;1.83;;;;;;;;;;5053065;28;20232;-44
2023/07/15 06:20:19;;;;;;;3.45;2.00;;;;;;;;;;5053009;28;20227;-44
2023/07/15 06:22:46;;;;;;;3.17;2.00;;;;;;;;;;5059566;28;20302;-43
2023/07/15 06:25:14;;;;;;;1.95;1.70;;;;;;;;;;5071234;28;20265;-42
2023/07/15 06:27:41;;;;;;;3.10;1.60;;;;;;;;;;5071987;28;20735;-45
2023/07/15 06:30:09;;;;;;;2.80;1.80;;;;;;;;;;5073005;28;20226;-43
2023/07/15 06:32:36;;;;;;;2.78;1.90;;;;;;;;;;5073656;28;20223;-43
2023/07/15 06:35:04;;;;;;;2.50;1.73;;;;;;;;;;5073526;28;20273;-43
2023/07/15 06:37:32;;;;;;;2.90;1.67;;;;;;;;;;5073064;28;20214;-44
2023/07/15 06:39:59;;;;;;;3.03;1.77;;;;;;;;;;5074424;28;20200;-42
2023/07/15 06:42:26;;;;;;;3.92;1.83;;;;;;;;;;5072716;28;20518;-43
2023/07/15 06:44:53;;;;;;;4.22;1.92;;;;;;;;;;5071587;28;20660;-44
2023/07/15 06:47:20;;;;;;;3.25;2.08;;;;;;;;;;5074331;28;20286;-43
2023/07/15 06:49:48;;;;;;;2.22;1.70;;;;;;;;;;5074187;28;20203;-43
2023/07/15 06:52:15;;;;;;;3.08;1.80;;;;;;;;;;5074667;28;20276;-43
2023/07/15 06:54:42;;;;;;;4.47;2.15;;;;;;;;;;5074530;28;20250;-42
2023/07/15 06:57:09;;;;;;;2.50;1.60;;;;;;;;;;5074433;28;20290;-43
2023/07/15 06:59:36;;;;;;;2.78;1.95;;;;;;;;;;5074474;28;20254;-43
2023/07/15 07:02:03;;;;;;;3.30;2.00;;;;;;;;;;5074113;28;20234;-43
2023/07/15 07:04:30;;;;;;;2.00;1.70;;;;;;;;;;5074482;28;20225;-43
2023/07/15 07:06:57;;;;;;;2.15;1.73;;;;;;;;;;5074098;28;20204;-43
2023/07/15 07:09:25;;;;;;;2.80;1.77;;;;;;;;;;5073986;28;20732;-43
2023/07/15 07:11:51;;;;;;;2.88;1.70;;;;;;;;;;5074053;28;20207;-43
2023/07/15 07:14:19;;;;;;;4.50;1.73;;;;;;;;;;5074065;28;20207;-43
2023/07/15 07:16:46;;;;;;;1.55;1.45;;;;;;;;;;5073912;28;20659;-45
2023/07/15 07:19:13;;;;;;;2.30;1.73;;;;;;;;;;5073791;28;20733;-43
2023/07/15 07:21:40;;;;;;;3.88;1.98;;;;;;;;;;5074028;28;20314;-43
2023/07/15 07:24:07;;;;;;;2.15;1.60;;;;;;;;;;5073789;28;20199;-43
2023/07/15 07:26:34;;;;;;;2.03;1.45;;;;;;;;;;5073743;28;20676;-43
2023/07/15 07:29:02;;;;;;;2.67;1.50;;;;;;;;;;5074227;28;20271;-43
2023/07/15 07:31:29;;;;;;;3.42;1.60;;;;;;;;;;5073477;28;20251;-43
2023/07/15 07:33:56;;;;;;;2.08;1.33;;;;;;;;;;5073157;28;20210;-43
2023/07/15 07:36:23;;;;;;;2.95;1.48;;;;;;;;;;5072452;28;20207;-43
2023/07/15 07:38:51;;;;;;;1.83;1.30;;;;;;;;;;5073859;28;20203;-43
2023/07/15 07:41:17;;;;;;;2.28;1.40;;;;;;;;;;5073592;28;20204;-43
2023/07/15 07:43:45;;;;;;;1.77;1.10;;;;;;;;;;5073581;28;20203;-43
2023/07/15 07:46:12;;;;;;;1.80;0.93;;;;;;;;;;5073461;28;20671;-44
2023/07/15 07:48:39;;;;;;;3.20;1.10;;;;;;;;;;5073874;28;20256;-44
2023/07/15 07:51:07;;;;;;;2.38;1.52;;;;;;;;;;5073277;28;20195;-43
2023/07/15 07:53:34;;;;;;;1.70;0.98;;;;;;;;;;5073447;28;20251;-43
2023/07/15 07:56:01;;;;;;;4.32;1.00;;;;;;;;;;5073464;28;20210;-45
2023/07/15 07:58:28;;;;;;;2.50;0.95;;;;;;;;;;5073419;28;20211;-43
2023/07/15 08:00:55;;;;;;;1.33;0.90;;;;;;;;;;5073564;28;20255;-44
2023/07/15 08:03:24;;;;;;;1.63;1.13;;;;;;;;;;5073480;28;20229;-45
2023/07/15 08:05:51;;;;;;;1.90;1.00;;;;;;;;;;5073279;28;20195;-45
2023/07/15 08:08:19;;;;;;;3.00;1.00;;;;;;;;;;5073613;28;20208;-45
2023/07/15 08:10:46;;;;;;;1.70;1.05;;;;;;;;;;5073527;28;20233;-46
2023/07/15 08:13:13;;;;;;;1.02;0.80;;;;;;;;;;5073268;28;20219;-46
2023/07/15 08:15:40;;;;;;;3.33;1.30;;;;;;;;;;5073161;28;20560;-46
2023/07/15 08:18:08;;;;;;;3.53;1.00;;;;;;;;;;5073413;28;20211;-45
2023/07/15 08:20:37;;;;;;;1.20;0.70;;;;;;;;;;5073307;28;20206;-46
2023/07/15 08:23:04;;;;;;;5.88;1.85;;;;;;;;;;5073226;28;20227;-43
2023/07/15 08:25:31;;;;;;;2.70;1.33;;;;;;;;;;5073090;28;20199;-44
2023/07/15 08:27:59;;;;;;;1.20;0.80;;;;;;;;;;5073587;28;20212;-43
2023/07/15 08:30:26;;;;;;;0.75;0.70;;;;;;;;;;5073312;28;20199;-43
2023/07/15 08:32:53;;;;;;;1.35;0.90;;;;;;;;;;5071190;28;20647;-43
2023/07/15 08:35:20;;;;;;;1.05;0.90;;;;;;;;;;5062969;28;20292;-43
2023/07/15 08:37:48;;;;;;;1.40;1.00;;;;;;;;;;5065978;28;20241;-47
2023/07/15 08:40:21;;;;;;;1.30;0.80;;;;;;;;;;5071714;28;20199;-46
2023/07/15 08:42:48;;;;;;;1.95;0.75;;;;;;;;;;5071491;28;20228;-44
2023/07/15 08:45:16;;;;;;;2.55;1.30;;;;;;;;;;5076148;28;20191;-44
2023/07/15 08:47:44;;;;;;;0.80;0.77;;;;;;;;;;5073728;28;20195;-44
2023/07/15 08:50:15;;;;;;;1.83;0.90;;;;;;;;;;5074112;28;20199;-44
2023/07/15 08:52:43;;;;;;;1.27;0.90;;;;;;;;;;5074409;28;20697;-45
2023/07/15 08:55:12;;;;;;;1.48;1.00;;;;;;;;;;5074564;28;20196;-44
2023/07/15 08:57:40;;;;;;;1.42;0.90;;;;;;;;;;5069409;28;20644;-50
2023/07/15 09:00:09;;;;;;;0.70;0.60;;;;;;;;;;5073119;28;20621;-44
2023/07/15 09:02:38;;;;;;;1.27;0.80;;;;;;;;;;5074830;28;20663;-48
2023/07/15 09:05:09;;;;;;;1.00;0.90;;;;;;;;;;5075178;28;20192;-44
2023/07/15 09:07:45;;;;;;;4.10;0.85;;;;;;;;;;5075093;28;20199;-46
2023/07/15 09:10:13;;;;;;;1.13;1.00;;;;;;;;;;5073841;28;20192;-44
2023/07/15 09:12:45;;;;;;;1.42;0.85;;;;;;;;;;5074304;28;20709;-43
2023/07/15 09:15:13;;;;;;;2.25;0.60;;;;;;;;;;5073936;28;20541;-43
2023/07/15 09:17:42;;;;;;;1.70;1.00;;;;;;;;;;5070905;28;20555;-45
2023/07/15 09:20:16;;;;;;;1.38;0.82;;;;;;;;;;5063333;28;20199;-48
2023/07/15 09:22:50;;;;;;;1.23;0.90;;;;;;;;;;5072498;28;20214;-46
2023/07/15 09:25:22;;;;;;;1.63;0.88;;;;;;;;;;5074975;28;20187;-45
2023/07/15 09:27:50;;;;;;;1.85;0.73;;;;;;;;;;5068781;28;20245;-45
2023/07/15 09:30:17;;;;;;;2.10;0.90;;;;;;;;;;5073860;28;20297;-46
2023/07/15 09:32:45;;;;;;;1.25;0.80;;;;;;;;;;5068387;28;20297;-45
2023/07/15 09:35:14;;;;;;;2.03;1.10;;;;;;;;;;5071904;28;20223;-45
2023/07/15 09:37:41;;;;;;;1.35;0.90;;;;;;;;;;5071698;28;20333;-45
2023/07/15 09:40:09;;;;;;;4.72;0.95;;;;;;;;;;5062952;28;20227;-44
2023/07/15 09:42:53;;;;;;;1.20;0.80;;;;;;;;;;5074647;28;20235;-46
2023/07/15 09:45:35;;;;;;;2.03;1.02;;;;;;;;;;5064804;28;20231;-43
2023/07/15 09:48:07;;;;;;;2.30;0.90;;;;;;;;;;5073028;28;20245;-44
2023/07/15 09:50:36;;;;;;;2.15;1.05;;;;;;;;;;5075134;28;20223;-43
2023/07/15 09:53:04;;;;;;;1.25;0.93;;;;;;;;;;5074320;28;20227;-44
2023/07/15 09:55:33;;;;;;;1.42;0.85;;;;;;;;;;5071454;28;20206;-44
2023/07/15 09:58:09;;;;;;;1.23;0.85;;;;;;;;;;5074284;28;20203;-44
2023/07/15 10:00:42;;;;;;;0.88;0.75;;;;;;;;;;5071218;28;20231;-44
2023/07/15 10:03:17;;;;;;;1.73;1.00;;;;;;;;;;5074689;28;20749;-45
2023/07/15 10:05:46;;;;;;;4.43;1.13;;;;;;;;;;5071357;28;20663;-44
2023/07/15 10:08:14;;;;;;;1.67;1.05;;;;;;;;;;5073360;28;20261;-46
2023/07/15 10:10:41;;;;;;;3.92;1.23;;;;;;;;;;5069719;28;20648;-45
2023/07/15 10:13:11;;;;;;;1.63;0.90;;;;;;;;;;5071119;28;20589;-45
2023/07/15 10:15:38;;;;;;;2.15;0.95;;;;;;;;;;5073107;28;20191;-46
2023/07/15 10:18:18;;;;;;;1.65;0.90;;;;;;;;;;5056877;28;20199;-46
2023/07/15 10:20:55;;;;;;;1.65;1.20;;;;;;;;;;5075037;28;20187;-45
2023/07/15 10:23:27;;;;;;;1.52;1.10;;;;;;;;;;5074055;28;20222;-45
2023/07/15 10:26:00;;;;;;;1.63;1.10;;;;;;;;;;5073641;28;20194;-46
2023/07/15 10:28:39;;;;;;;1.73;0.98;;;;;;;;;;5073741;28;20190;-45
2023/07/15 10:31:07;;;;;;;1.30;1.00;;;;;;;;;;5072984;28;20202;-46
2023/07/15 10:33:38;;;;;;;1.50;0.90;;;;;;;;;;5073963;28;20564;-46
2023/07/15 10:36:06;;;;;;;2.08;1.20;;;;;;;;;;5069741;28;20656;-46
2023/07/15 10:38:33;;;;;;;1.73;0.98;;;;;;;;;;5071597;28;20196;-45
2023/07/15 10:41:02;;;;;;;1.67;0.90;;;;;;;;;;5070616;28;20525;-45
2023/07/15 10:43:36;;;;;;;1.10;0.90;;;;;;;;;;5072791;28;20292;-46
2023/07/15 10:46:11;;;;;;;1.70;1.00;;;;;;;;;;5071281;28;20275;-46
2023/07/15 10:48:39;;;;;;;1.70;1.10;;;;;;;;;;5069761;28;20591;-47
2023/07/15 10:51:08;;;;;;;1.45;1.10;;;;;;;;;;5068197;28;20199;-46
2023/07/15 10:53:36;;;;;;;2.58;1.10;;;;;;;;;;5061872;28;20211;-47
2023/07/15 10:56:11;;;;;;;1.55;0.95;;;;;;;;;;5071682;28;20226;-45
2023/07/15 10:58:40;;;;;;;1.60;1.10;;;;;;;;;;5071283;28;20199;-45
2023/07/15 11:01:10;;;;;;;3.70;1.05;;;;;;;;;;5071880;28;20246;-47
2023/07/15 11:03:41;;;;;;;1.58;1.17;;;;;;;;;;5072621;28;20231;-49
2023/07/15 11:06:08;;;;;;;1.40;1.10;;;;;;;;;;5073189;28;20265;-45
2023/07/15 11:08:40;;;;;;;5.32;1.23;;;;;;;;;;5072809;28;20257;-47
2023/07/15 11:11:12;;;;;;;1.52;1.08;;;;;;;;;;5073668;28;20191;-46
2023/07/15 11:13:41;;;;;;;2.03;1.00;;;;;;;;;;5074031;28;20213;-45
2023/07/15 11:16:08;;;;;;;2.33;0.95;;;;;;;;;;5074249;28;20195;-46
2023/07/15 11:18:36;;;;;;;1.90;1.17;;;;;;;;;;5073852;28;20770;-45
2023/07/15 11:21:03;;;;;;;1.48;1.10;;;;;;;;;;5073798;28;20252;-46
2023/07/15 11:23:31;;;;;;;1.38;0.88;;;;;;;;;;5072869;28;20224;-46
2023/07/15 11:26:09;;;;;;;1.50;1.25;;;;;;;;;;5071281;28;20295;-45
2023/07/15 11:28:50;;;;;;;1.88;0.95;;;;;;;;;;5068536;28;20203;-45
2023/07/15 11:31:21;;;;;;;1.42;1.02;;;;;;;;;;5070387;28;20190;-47
2023/07/15 11:33:53;;;;;;;1.52;1.08;;;;;;;;;;5072536;28;20206;-45
2023/07/15 11:36:20;;;;;;;2.35;1.38;;;;;;;;;;5070506;28;20241;-45
2023/07/15 11:38:47;;;;;;;1.83;1.30;;;;;;;;;;5064343;28;20286;-45
2023/07/15 11:41:15;;;;;;;1.25;1.05;;;;;;;;;;5071578;28;20332;-46
2023/07/15 11:43:42;;;;;;;1.23;1.05;;;;;;;;;;5070946;28;20224;-46
2023/07/15 11:46:09;;;;;;;2.35;1.10;;;;;;;;;;5071552;28;20594;-43
2023/07/15 11:48:36;;;;;;;1.45;1.08;;;;;;;;;;5072999;28;20199;-46
2023/07/15 11:51:05;;;;;;;1.25;1.15;;;;;;;;;;5071673;28;20191;-45
2023/07/15 11:53:35;;;;;;;1.42;1.05;;;;;;;;;;5073043;28;20203;-47
2023/07/15 11:56:03;;;;;;;1.17;0.90;;;;;;;;;;5073124;28;20286;-45
2023/07/15 11:58:42;;;;;;;1.48;1.10;;;;;;;;;;5073120;28;20199;-42
2023/07/15 12:01:17;;;;;;;2.88;1.17;;;;;;;;;;5073146;28;20219;-45
2023/07/15 12:03:45;;;;;;;1.38;1.08;;;;;;;;;;5071385;28;20234;-44
2023/07/15 12:06:23;;;;;;;1.08;0.88;;;;;;;;;;5070218;28;20204;-43
2023/07/15 12:09:01;;;;;;;1.65;1.10;;;;;;;;;;5071678;28;20550;-44
2023/07/15 12:11:33;;;;;;;1.20;1.00;;;;;;;;;;5068802;28;20219;-43
2023/07/15 12:14:01;;;;;;;1.85;1.10;;;;;;;;;;5070160;28;20187;-43
2023/07/15 12:16:30;;;;;;;3.00;1.20;;;;;;;;;;5072772;28;20199;-44
2023/07/15 12:18:59;;;;;;;0.80;0.80;;;;;;;;;;5071768;28;20203;-42
2023/07/15 12:21:27;;;;;;;1.30;1.20;;;;;;;;;;5077338;28;20199;-45
2023/07/15 12:23:55;;;;;;;2.20;1.23;;;;;;;;;;5077450;28;20238;-44
2023/07/15 12:26:23;;;;;;;1.63;1.08;;;;;;;;;;5077155;28;20214;-44
2023/07/15 12:28:51;;;;;;;2.35;1.48;;;;;;;;;;5077145;28;20199;-44
2023/07/15 12:31:18;;;;;;;1.63;1.50;;;;;;;;;;5071226;28;20237;-44
2023/07/15 12:33:46;;;;;;;2.10;1.35;;;;;;;;;;5076267;28;20579;-44
2023/07/15 12:36:15;;;;;;;2.38;1.50;;;;;;;;;;5062540;28;20310;-48
2023/07/15 12:38:43;;;;;;;1.40;1.00;;;;;;;;;;5056519;28;20230;-44
2023/07/15 12:41:11;;;;;;;1.42;1.05;;;;;;;;;;5072344;28;20584;-45
2023/07/15 12:43:39;;;;;;;1.98;1.50;;;;;;;;;;5076377;28;20219;-45
2023/07/15 12:46:06;;;;;;;2.20;1.30;;;;;;;;;;5075705;28;20195;-42
2023/07/15 12:48:34;;;;;;;1.75;1.15;;;;;;;;;;5076287;28;20396;-41
2023/07/15 12:51:01;;;;;;;2.40;1.17;;;;;;;;;;5073880;28;20652;-39
2023/07/15 12:53:28;;;;;;;4.30;1.77;;;;;;;;;;5055856;28;20208;-41
2023/07/15 12:55:55;;;;;;;4.25;1.50;;;;;;;;;;5052869;28;20203;-39
2023/07/15 12:58:24;;;;;;;1.92;1.63;;;;;;;;;;5053513;28;20216;-39
2023/07/15 13:00:51;;;;;;;7.85;2.80;;;;;;;;;;5053571;28;20290;-39
2023/07/15 13:03:18;;;;;;;2.83;1.55;;;;;;;;;;5055156;28;20227;-43
2023/07/15 13:05:46;;;;;;;1.75;1.00;;;;;;;;;;5055336;28;20196;-40
2023/07/15 13:08:15;;;;;;;1.60;1.30;;;;;;;;;;5056087;28;20203;-42
2023/07/15 13:10:45;;;;;;;4.32;1.38;;;;;;;;;;5062687;28;20249;-40
2023/07/15 13:13:12;;;;;;;2.65;1.60;;;;;;;;;;5076241;28;20196;-44
2023/07/15 13:15:44;;;;;;;4.88;1.90;;;;;;;;;;5076189;28;20230;-39
2023/07/15 13:18:12;;;;;;;2.78;1.30;;;;;;;;;;5076167;28;20183;-42
2023/07/15 13:20:39;;;;;;;2.17;1.33;;;;;;;;;;5076528;28;20204;-39
2023/07/15 13:23:08;;;;;;;1.80;1.25;;;;;;;;;;5076166;28;20237;-39
2023/07/15 13:25:35;;;;;;;2.53;1.40;;;;;;;;;;5076181;28;20199;-39
2023/07/15 13:28:03;;;;;;;2.20;1.50;;;;;;;;;;5075957;28;20655;-40
2023/07/15 13:30:31;;;;;;;1.83;1.23;;;;;;;;;;5074603;28;20207;-40
2023/07/15 13:32:58;;;;;;;1.83;1.40;;;;;;;;;;5075826;28;20732;-42
2023/07/15 13:35:25;;;;;;;1.95;1.17;;;;;;;;;;5076124;28;20214;-39
2023/07/15 13:37:53;;;;;;;2.47;1.30;;;;;;;;;;5076059;28;20196;-40
2023/07/15 13:40:20;;;;;;;1.85;1.45;;;;;;;;;;5075908;28;20219;-39
2023/07/15 13:42:50;;;;;;;2.10;1.48;;;;;;;;;;5076063;28;20294;-40
2023/07/15 13:45:18;;;;;;;1.58;1.13;;;;;;;;;;5075507;28;20188;-39
2023/07/15 13:47:50;;;;;;;1.80;1.13;;;;;;;;;;5075574;28;20207;-39
2023/07/15 13:50:18;;;;;;;2.13;1.15;;;;;;;;;;5075430;28;20187;-39
2023/07/15 13:52:46;;;;;;;1.13;1.00;;;;;;;;;;5075356;28;20211;-39
2023/07/15 13:55:13;;;;;;;1.42;1.33;;;;;;;;;;5075779;28;20230;-41
2023/07/15 13:57:40;;;;;;;2.40;1.40;;;;;;;;;;5076053;28;20211;-39
2023/07/15 14:00:08;;;;;;;2.55;1.30;;;;;;;;;;5075846;28;20239;-40
2023/07/15 14:02:40;;;;;;;1.70;1.40;;;;;;;;;;5075793;28;20194;-39
2023/07/15 14:05:07;;;;;;;4.38;2.30;;;;;;;;;;5075557;28;20234;-39
2023/07/15 14:07:34;;;;;;;2.22;1.33;;;;;;;;;;5075345;28;20206;-41
2023/07/15 14:10:02;;;;;;;2.28;1.48;;;;;;;;;;5075378;28;20210;-39
2023/07/15 14:12:29;;;;;;;1.88;1.30;;;;;;;;;;5074183;28;20234;-39
2023/07/15 14:14:56;;;;;;;1.92;1.40;;;;;;;;;;5075256;28;20241;-38
2023/07/15 14:17:24;;;;;;;1.75;1.38;;;;;;;;;;5075269;28;20207;-39
2023/07/15 14:19:51;;;;;;;2.20;1.30;;;;;;;;;;5075048;28;20199;-39
2023/07/15 14:22:22;;;;;;;1.67;1.30;;;;;;;;;;5075119;28;20201;-38
2023/07/15 14:25:05;;;;;;;2.00;1.30;;;;;;;;;;5075306;28;20227;-39
2023/07/15 14:27:32;;;;;;;1.73;1.10;;;;;;;;;;5074969;28;20690;-38
2023/07/15 14:29:59;;;;;;;1.80;1.45;;;;;;;;;;5075190;28;20610;-39
2023/07/15 14:32:27;;;;;;;2.42;1.33;;;;;;;;;;5075126;28;20206;-40
2023/07/15 14:34:54;;;;;;;2.25;1.42;;;;;;;;;;5074498;28;20203;-38
2023/07/15 14:37:21;;;;;;;1.70;1.50;;;;;;;;;;5075084;28;20195;-37
2023/07/15 14:39:48;;;;;;;1.55;1.23;;;;;;;;;;5073720;28;20199;-37
2023/07/15 14:42:16;;;;;;;1.83;1.23;;;;;;;;;;5074284;28;20265;-37
2023/07/15 14:44:43;;;;;;;2.67;1.33;;;;;;;;;;5073674;28;20218;-38
2023/07/15 14:47:10;;;;;;;2.35;1.15;;;;;;;;;;5074885;28;20199;-38
2023/07/15 14:49:37;;;;;;;1.75;1.30;;;;;;;;;;5074388;28;20655;-38
2023/07/15 14:52:05;;;;;;;3.88;1.10;;;;;;;;;;5072963;28;20676;-38